createdAt,value
2023-03-29T00:02:09.637Z,100.00
2023-03-29T00:04:38.209Z,100.00
2023-03-29T00:07:14.410Z,100.00
2023-03-29T00:10:10.806Z,95.92
2023-03-29T00:12:56.450Z,100.00
2023-03-29T00:15:28.499Z,100.00
2023-03-29T00:18:13.218Z,100.00
2023-03-29T00:21:06.784Z,100.00
2023-03-29T00:23:37.447Z,100.00
2023-03-29T00:26:18.644Z,100.00
2023-03-29T00:28:48.699Z,100.00
2023-03-29T00:31:22.028Z,100.00
2023-03-29T00:33:49.460Z,100.00
2023-03-29T00:37:07.925Z,100.00
2023-03-29T00:39:42.649Z,100.00
2023-03-29T00:42:59.043Z,100.00
2023-03-29T00:45:51.995Z,96.98
2023-03-29T00:49:03.929Z,87.09
2023-03-29T00:51:52.796Z,84.56
2023-03-29T00:54:28.083Z,82.81
2023-03-29T00:57:06.985Z,82.06
2023-03-29T01:00:12.178Z,81.32
2023-03-29T01:02:59.934Z,79.44
2023-03-29T01:06:05.562Z,81.23
2023-03-29T01:08:42.311Z,82.11
2023-03-29T01:11:48.681Z,79.92
2023-03-29T01:14:44.396Z,79.88
2023-03-29T01:17:16.473Z,78.20
2023-03-29T01:20:22.385Z,74.62
2023-03-29T01:23:21.399Z,76.47
2023-03-29T01:26:13.314Z,76.42
2023-03-29T01:29:29.563Z,76.78
2023-03-29T01:32:17.974Z,93.13
2023-03-29T01:35:05.110Z,85.28
2023-03-29T01:37:40.054Z,87.83
2023-03-29T01:40:22.340Z,86.88
2023-03-29T01:43:11.844Z,88.25
2023-03-29T01:46:12.877Z,78.54
2023-03-29T01:49:32.703Z,74.30
2023-03-29T01:52:50.902Z,71.39
2023-03-29T01:55:56.010Z,70.61
2023-03-29T01:59:00.515Z,68.50
2023-03-29T02:02:06.157Z,68.90
2023-03-29T02:04:57.827Z,72.94
2023-03-29T02:07:49.015Z,74.37
2023-03-29T02:10:35.345Z,72.87
2023-03-29T02:13:24.417Z,71.08
2023-03-29T02:16:39.880Z,73.97
2023-03-29T02:19:19.945Z,73.02
2023-03-29T02:22:17.884Z,76.23
2023-03-29T02:25:35.664Z,77.35
2023-03-29T02:27:50.132Z,79.53
2023-03-29T02:31:02.446Z,75.33
2023-03-29T02:33:57.678Z,77.55
2023-03-29T02:36:59.133Z,77.94
2023-03-29T02:39:40.508Z,88.49
2023-03-29T02:42:11.233Z,96.57
2023-03-29T02:44:56.813Z,92.55
2023-03-29T02:48:11.628Z,89.34
2023-03-29T02:50:52.277Z,89.33
2023-03-29T02:53:41.549Z,100.00
2023-03-29T02:56:43.233Z,100.00
2023-03-29T03:02:12.394Z,100.00
2023-03-29T03:05:02.508Z,100.00
2023-03-29T03:10:48.752Z,100.00
2023-03-29T03:13:19.373Z,100.00
2023-03-29T03:15:57.932Z,100.00
2023-03-29T03:18:48.854Z,100.00
2023-03-29T03:21:57.546Z,100.00
2023-03-29T03:28:14.058Z,100.00
2023-03-29T03:30:56.494Z,100.00
2023-03-29T03:33:32.479Z,100.00
2023-03-29T03:36:44.498Z,100.00
2023-03-29T03:39:15.822Z,100.00
2023-03-29T03:42:11.646Z,100.00
2023-03-29T03:45:00.150Z,100.00
2023-03-29T03:47:45.094Z,100.00
2023-03-29T03:50:12.373Z,100.00
2023-03-29T03:52:40.403Z,100.00
2023-03-29T03:55:19.304Z,100.00
2023-03-29T03:58:14.889Z,100.00
2023-03-29T04:00:53.129Z,100.00
2023-03-29T04:03:39.063Z,100.00
2023-03-29T04:06:17.610Z,100.00
2023-03-29T04:09:00.141Z,100.00
2023-03-29T04:11:37.276Z,100.00
2023-03-29T04:17:16.263Z,100.00
2023-03-29T04:20:08.193Z,100.00
2023-03-29T04:22:45.664Z,100.00
2023-03-29T04:25:32.081Z,100.00
2023-03-29T04:28:02.966Z,100.00
2023-03-29T04:30:52.038Z,100.00
2023-03-29T04:33:43.456Z,100.00
2023-03-29T04:36:44.112Z,100.00
2023-03-29T04:39:14.792Z,100.00
2023-03-29T04:41:58.959Z,100.00
2023-03-29T04:44:55.059Z,100.00
2023-03-29T04:47:22.222Z,100.00
2023-03-29T04:49:53.076Z,100.00
2023-03-29T04:52:25.813Z,100.00
2023-03-29T04:55:06.991Z,100.00
2023-03-29T04:57:54.715Z,100.00
2023-03-29T05:00:43.449Z,100.00
2023-03-29T05:03:37.075Z,100.00
2023-03-29T05:06:29.522Z,100.00
2023-03-29T05:09:17.486Z,100.00
2023-03-29T05:12:08.319Z,100.00
2023-03-29T05:14:38.943Z,100.00
2023-03-29T05:17:10.144Z,100.00
2023-03-29T05:19:58.087Z,100.00
2023-03-29T05:23:05.175Z,100.00
2023-03-29T05:26:05.061Z,100.00
2023-03-29T05:28:44.596Z,100.00
2023-03-29T05:34:34.905Z,100.00
2023-03-29T05:37:21.043Z,100.00
2023-03-29T05:39:51.541Z,100.00
2023-03-29T05:42:26.751Z,100.00
2023-03-29T05:45:01.080Z,100.00
2023-03-29T05:47:31.246Z,100.00
2023-03-29T05:49:58.663Z,100.00
2023-03-29T05:52:28.898Z,100.00
2023-03-29T05:54:57.220Z,100.00
2023-03-29T05:57:24.986Z,100.00
2023-03-29T05:59:52.288Z,100.00
2023-03-29T06:02:20.648Z,100.00
2023-03-29T06:04:49.111Z,100.00
2023-03-29T06:07:16.671Z,100.00
2023-03-29T06:09:47.769Z,100.00
2023-03-29T06:12:14.990Z,100.00
2023-03-29T06:14:46.010Z,100.00
2023-03-29T06:17:14.057Z,100.00
2023-03-29T06:19:46.413Z,100.00
2023-03-29T06:22:18.479Z,100.00
2023-03-29T06:24:46.663Z,100.00
2023-03-29T06:27:14.593Z,100.00
2023-03-29T06:29:42.114Z,100.00
2023-03-29T06:32:12.765Z,100.00
2023-03-29T06:34:47.744Z,100.00
2023-03-29T06:37:18.360Z,100.00
2023-03-29T06:39:45.943Z,100.00
2023-03-29T06:42:21.613Z,100.00
2023-03-29T06:44:52.620Z,100.00
2023-03-29T06:47:19.886Z,100.00
2023-03-29T06:49:47.141Z,100.00
2023-03-29T06:52:17.126Z,100.00
2023-03-29T06:54:44.601Z,100.00
2023-03-29T06:57:14.603Z,100.00
2023-03-29T06:59:45.534Z,100.00
2023-03-29T07:02:29.319Z,100.00
2023-03-29T07:05:01.661Z,100.00
2023-03-29T07:07:44.174Z,100.00
2023-03-29T07:10:20.533Z,100.00
2023-03-29T07:12:49.408Z,100.00
2023-03-29T07:15:19.770Z,100.00
2023-03-29T07:17:47.824Z,100.00
2023-03-29T07:20:16.904Z,100.00
2023-03-29T07:22:49.470Z,100.00
2023-03-29T07:25:18.851Z,100.00
2023-03-29T07:27:52.928Z,100.00
2023-03-29T07:30:26.442Z,100.00
2023-03-29T07:32:58.963Z,100.00
2023-03-29T07:35:27.710Z,100.00
2023-03-29T07:38:03.111Z,100.00
2023-03-29T07:40:31.330Z,100.00
2023-03-29T07:43:21.288Z,100.00
2023-03-29T07:45:48.828Z,100.00
2023-03-29T07:48:16.367Z,100.00
2023-03-29T07:50:47.688Z,100.00
2023-03-29T07:53:14.981Z,100.00
2023-03-29T07:55:47.805Z,100.00
2023-03-29T07:58:16.499Z,100.00
2023-03-29T08:00:46.938Z,100.00
2023-03-29T08:03:15.015Z,100.00
2023-03-29T08:05:42.400Z,100.00
2023-03-29T08:08:14.320Z,100.00
2023-03-29T08:10:45.194Z,100.00
2023-03-29T08:13:12.908Z,100.00
2023-03-29T08:15:47.462Z,100.00
2023-03-29T08:18:21.091Z,100.00
2023-03-29T08:20:48.942Z,100.00
2023-03-29T08:23:19.212Z,100.00
2023-03-29T08:25:52.329Z,100.00
2023-03-29T08:28:19.816Z,100.00
2023-03-29T08:30:48.367Z,100.00
2023-03-29T08:33:18.470Z,100.00
2023-03-29T08:35:46.575Z,100.00
2023-03-29T08:38:14.458Z,100.00
2023-03-29T08:40:47.832Z,100.00
2023-03-29T08:44:20.940Z,100.00
2023-03-29T08:47:07.411Z,100.00
2023-03-29T08:49:39.957Z,100.00
2023-03-29T08:52:41.132Z,100.00
2023-03-29T08:55:32.834Z,100.00
2023-03-29T08:58:07.986Z,100.00
2023-03-29T09:00:50.883Z,100.00
2023-03-29T09:04:00.003Z,100.00
2023-03-29T09:06:30.278Z,100.00
2023-03-29T09:08:58.105Z,100.00
2023-03-29T09:11:26.312Z,100.00
2023-03-29T09:14:36.473Z,100.00
2023-03-29T09:17:28.021Z,100.00
2023-03-29T09:20:37.025Z,100.00
2023-03-29T09:23:22.651Z,100.00
2023-03-29T09:26:13.147Z,100.00
2023-03-29T09:29:46.424Z,100.00
2023-03-29T09:32:32.231Z,100.00
2023-03-29T09:35:21.295Z,100.00
2023-03-29T09:37:52.623Z,100.00
2023-03-29T09:40:43.026Z,100.00
2023-03-29T09:43:19.101Z,100.00
2023-03-29T09:46:07.812Z,100.00
2023-03-29T09:48:44.363Z,100.00
2023-03-29T09:51:14.766Z,100.00
2023-03-29T09:53:48.363Z,100.00
2023-03-29T09:56:19.248Z,100.00
2023-03-29T09:58:49.466Z,100.00
2023-03-29T10:01:21.104Z,100.00
2023-03-29T10:03:52.563Z,100.00
2023-03-29T10:06:27.748Z,100.00
2023-03-29T10:08:59.184Z,100.00
2023-03-29T10:11:34.898Z,100.00
2023-03-29T10:14:25.063Z,100.00
2023-03-29T10:17:02.613Z,100.00
2023-03-29T10:19:37.931Z,100.00
2023-03-29T10:22:21.300Z,100.00
2023-03-29T10:24:52.365Z,100.00
2023-03-29T10:27:28.501Z,100.00
2023-03-29T10:30:19.562Z,100.00
2023-03-29T10:33:00.535Z,100.00
2023-03-29T10:35:40.583Z,100.00
2023-03-29T10:38:17.573Z,100.00
2023-03-29T10:40:59.385Z,100.00
2023-03-29T10:43:32.435Z,100.00
2023-03-29T10:46:20.138Z,100.00
2023-03-29T10:49:00.217Z,100.00
2023-03-29T10:51:33.623Z,100.00
2023-03-29T10:54:05.635Z,100.00
2023-03-29T10:56:46.328Z,100.00
2023-03-29T10:59:48.893Z,100.00
2023-03-29T11:02:16.015Z,100.00
2023-03-29T11:05:17.672Z,100.00
2023-03-29T11:08:15.996Z,100.00
2023-03-29T11:10:57.115Z,100.00
2023-03-29T11:14:04.667Z,100.00
2023-03-29T11:17:10.177Z,100.00
2023-03-29T11:20:14.725Z,100.00
2023-03-29T11:22:56.429Z,100.00
2023-03-29T11:25:56.950Z,100.00
2023-03-29T11:28:56.373Z,100.00
2023-03-29T11:31:52.997Z,100.00
2023-03-29T11:35:04.179Z,100.00
2023-03-29T11:38:14.057Z,100.00
2023-03-29T11:41:13.771Z,100.00
2023-03-29T11:44:22.391Z,100.00
2023-03-29T11:47:06.278Z,100.00
2023-03-29T11:49:49.533Z,100.00
2023-03-29T11:52:31.407Z,100.00
2023-03-29T11:55:23.238Z,100.00
2023-03-29T11:58:04.323Z,100.00
2023-03-29T12:00:49.571Z,100.00
2023-03-29T12:03:46.234Z,100.00
2023-03-29T12:06:29.554Z,100.00
2023-03-29T12:09:07.871Z,100.00
2023-03-29T12:11:51.452Z,100.00
2023-03-29T12:14:29.118Z,100.00
2023-03-29T12:17:15.320Z,100.00
2023-03-29T12:19:58.252Z,100.00
2023-03-29T12:22:29.155Z,100.00
2023-03-29T12:24:57.821Z,100.00
2023-03-29T12:27:33.219Z,100.00
2023-03-29T12:30:28.252Z,100.00
2023-03-29T12:33:23.283Z,100.00
2023-03-29T12:36:18.628Z,100.00
2023-03-29T12:38:48.239Z,100.00
2023-03-29T12:41:23.018Z,100.00
2023-03-29T12:44:13.964Z,100.00
2023-03-29T12:46:44.289Z,100.00
2023-03-29T12:49:46.150Z,100.00
2023-03-29T12:52:36.490Z,100.00
2023-03-29T12:55:25.990Z,100.00
2023-03-29T12:58:07.247Z,100.00
2023-03-29T13:00:45.394Z,100.00
2023-03-29T13:03:30.072Z,100.00
2023-03-29T13:06:51.696Z,100.00
2023-03-29T13:10:08.556Z,100.00
2023-03-29T13:12:35.658Z,100.00
2023-03-29T13:15:08.367Z,100.00
2023-03-29T13:18:17.042Z,100.00
2023-03-29T13:21:03.372Z,100.00
2023-03-29T13:23:43.295Z,100.00
2023-03-29T13:26:58.846Z,100.00
2023-03-29T13:29:50.114Z,100.00
2023-03-29T13:32:20.256Z,100.00
2023-03-29T13:35:08.374Z,100.00
2023-03-29T13:38:21.729Z,100.00
2023-03-29T13:41:05.861Z,100.00
2023-03-29T13:43:54.093Z,100.00
2023-03-29T13:46:46.479Z,100.00
2023-03-29T13:49:28.153Z,100.00
2023-03-29T13:52:37.022Z,100.00
2023-03-29T13:55:32.278Z,100.00
2023-03-29T13:58:42.117Z,100.00
2023-03-29T14:01:39.694Z,100.00
2023-03-29T14:04:13.954Z,100.00
2023-03-29T14:07:01.709Z,100.00
2023-03-29T14:09:43.174Z,100.00
2023-03-29T14:12:17.662Z,100.00
2023-03-29T14:14:58.735Z,100.00
2023-03-29T14:17:27.932Z,100.00
2023-03-29T14:20:09.825Z,100.00
2023-03-29T14:22:44.420Z,100.00
2023-03-29T14:25:19.886Z,100.00
2023-03-29T14:27:50.359Z,100.00
2023-03-29T14:30:34.394Z,100.00
2023-03-29T14:33:05.311Z,100.00
2023-03-29T14:35:43.767Z,100.00
2023-03-29T14:38:16.649Z,100.00
2023-03-29T14:40:49.477Z,100.00
2023-03-29T14:43:24.341Z,100.00
2023-03-29T14:45:55.087Z,100.00
2023-03-29T14:48:26.270Z,100.00
2023-03-29T14:50:56.932Z,100.00
2023-03-29T14:53:31.533Z,100.00
2023-03-29T14:55:59.801Z,100.00
2023-03-29T14:58:40.896Z,100.00
2023-03-29T15:01:23.695Z,100.00
2023-03-29T15:04:06.480Z,100.00
2023-03-29T15:06:49.337Z,100.00
2023-03-29T15:09:40.131Z,100.00
2023-03-29T15:12:07.902Z,100.00
2023-03-29T15:14:39.032Z,100.00
2023-03-29T15:17:47.621Z,100.00
2023-03-29T15:20:45.583Z,100.00
2023-03-29T15:23:18.598Z,100.00
2023-03-29T15:25:59.554Z,100.00
2023-03-29T15:28:37.383Z,100.00
2023-03-29T15:31:17.987Z,100.00
2023-03-29T15:33:47.014Z,100.00
2023-03-29T15:36:17.861Z,100.00
2023-03-29T15:38:51.247Z,100.00
2023-03-29T15:41:18.759Z,100.00
2023-03-29T15:43:46.959Z,100.00
2023-03-29T15:46:17.514Z,100.00
2023-03-29T15:48:50.265Z,100.00
2023-03-29T15:51:40.956Z,100.00
2023-03-29T15:57:28.437Z,100.00
2023-03-29T16:00:06.233Z,100.00
2023-03-29T16:02:41.757Z,100.00
2023-03-29T16:05:21.469Z,100.00
2023-03-29T16:07:55.574Z,100.00
2023-03-29T16:10:30.516Z,100.00
2023-03-29T16:13:13.585Z,100.00
2023-03-29T16:17:06.371Z,100.00
2023-03-29T16:20:58.464Z,100.00
2023-03-29T16:49:56.298Z,100.00
2023-03-29T16:52:50.567Z,100.00
2023-03-29T16:56:03.606Z,100.00
2023-03-29T17:00:07.552Z,100.00
2023-03-29T17:03:15.052Z,100.00
2023-03-29T17:06:27.196Z,100.00
2023-03-29T17:09:04.668Z,100.00
2023-03-29T17:12:41.861Z,100.00
2023-03-29T17:15:56.325Z,100.00
2023-03-29T17:19:19.471Z,100.00
2023-03-29T17:25:23.814Z,100.00
2023-03-29T17:28:20.879Z,100.00
2023-03-29T17:31:11.606Z,100.00
2023-03-29T17:33:47.157Z,100.00
2023-03-29T17:37:31.181Z,100.00
2023-03-29T17:40:35.529Z,100.00
2023-03-29T17:43:34.479Z,100.00
2023-03-29T17:46:39.496Z,100.00
2023-03-29T17:50:00.067Z,100.00
2023-03-29T17:56:11.442Z,100.00
2023-03-29T17:59:38.190Z,100.00
2023-03-29T18:03:16.734Z,100.00
2023-03-29T18:20:05.645Z,100.00
2023-03-29T18:26:50.978Z,100.00
2023-03-29T18:30:00.841Z,100.00
2023-03-29T18:36:40.741Z,100.00
2023-03-29T18:39:49.306Z,100.00
2023-03-29T18:42:38.043Z,100.00
2023-03-29T18:45:34.948Z,100.00
2023-03-29T18:49:48.904Z,100.00
2023-03-29T18:52:45.394Z,100.00
2023-03-29T18:56:12.984Z,100.00
2023-03-29T18:58:54.329Z,100.00
2023-03-29T19:02:03.384Z,100.00
2023-03-29T19:04:41.876Z,100.00
2023-03-29T19:07:12.192Z,100.00
2023-03-29T19:09:43.037Z,100.00
2023-03-29T19:12:15.294Z,100.00
2023-03-29T19:17:48.745Z,100.00
2023-03-29T19:20:22.235Z,100.00
2023-03-29T19:22:53.973Z,100.00
2023-03-29T19:25:22.177Z,100.00
2023-03-29T19:30:59.647Z,100.00
2023-03-29T19:33:49.247Z,100.00
2023-03-29T19:36:39.564Z,100.00
2023-03-29T19:42:24.539Z,100.00
2023-03-29T19:53:06.235Z,100.00
2023-03-29T19:59:15.572Z,100.00
2023-03-29T20:12:21.880Z,100.00
2023-03-29T20:15:46.610Z,100.00
2023-03-29T20:21:18.931Z,100.00
2023-03-29T20:21:29.608Z,100.00
2023-03-29T20:25:40.225Z,100.00
2023-03-29T20:31:33.872Z,100.00
2023-03-29T20:34:01.161Z,100.00
2023-03-29T20:36:30.953Z,100.00
2023-03-29T20:39:02.187Z,100.00
2023-03-29T20:41:36.708Z,100.00
2023-03-29T20:44:15.009Z,100.00
2023-03-29T20:46:55.716Z,100.00
2023-03-29T20:49:32.684Z,100.00
2023-03-29T20:51:59.928Z,100.00
2023-03-29T20:54:48.034Z,100.00
2023-03-29T20:57:21.359Z,100.00
2023-03-29T20:59:56.860Z,100.00
2023-03-29T21:02:24.770Z,100.00
2023-03-29T21:04:54.134Z,100.00
2023-03-29T21:07:21.971Z,100.00
2023-03-29T21:09:52.867Z,100.00
2023-03-29T21:12:23.689Z,100.00
2023-03-29T21:14:53.817Z,100.00
2023-03-29T21:17:30.936Z,100.00
2023-03-29T21:20:03.154Z,100.00
2023-03-29T21:22:43.241Z,100.00
2023-03-29T21:25:19.846Z,100.00
2023-03-29T21:27:50.950Z,100.00
2023-03-29T21:30:21.058Z,100.00
2023-03-29T21:32:48.284Z,100.00
2023-03-29T21:35:18.320Z,100.00
2023-03-29T21:37:45.743Z,100.00
2023-03-29T21:40:16.442Z,100.00
2023-03-29T21:42:43.862Z,100.00
2023-03-29T21:45:14.270Z,100.00
2023-03-29T21:47:49.078Z,100.00
2023-03-29T21:50:16.580Z,100.00
2023-03-29T21:52:43.694Z,100.00
2023-03-29T21:55:16.458Z,100.00
2023-03-29T21:57:46.754Z,100.00
2023-03-29T22:00:15.945Z,100.00
2023-03-29T22:02:45.911Z,100.00
2023-03-29T22:05:13.326Z,100.00
2023-03-29T22:07:55.625Z,100.00
2023-03-29T22:10:23.033Z,100.00
2023-03-29T22:12:54.417Z,100.00
2023-03-29T22:15:25.453Z,100.00
2023-03-29T22:17:53.493Z,100.00
2023-03-29T22:20:24.583Z,100.00
2023-03-29T22:22:51.821Z,100.00
2023-03-29T22:25:23.612Z,100.00
2023-03-29T22:27:53.241Z,100.00
2023-03-29T22:30:20.533Z,100.00
2023-03-29T22:32:59.011Z,100.00
2023-03-29T22:35:26.927Z,100.00
2023-03-29T22:38:16.398Z,100.00
2023-03-29T22:40:47.652Z,100.00
2023-03-29T22:43:27.809Z,100.00
2023-03-29T22:45:55.331Z,100.00
2023-03-29T22:48:24.972Z,100.00
2023-03-29T22:50:52.119Z,100.00
2023-03-29T22:53:21.872Z,100.00
2023-03-29T22:55:52.301Z,100.00
2023-03-29T22:58:32.027Z,100.00
2023-03-29T23:01:00.622Z,100.00
2023-03-29T23:03:28.268Z,100.00
2023-03-29T23:06:03.908Z,100.00
2023-03-29T23:08:35.418Z,100.00
2023-03-29T23:11:03.537Z,100.00
2023-03-29T23:13:39.198Z,100.00
2023-03-29T23:16:07.001Z,100.00
2023-03-29T23:18:40.296Z,100.00
2023-03-29T23:21:09.475Z,100.00
2023-03-29T23:23:39.548Z,100.00
2023-03-29T23:26:12.158Z,100.00
2023-03-29T23:28:55.344Z,100.00
2023-03-29T23:31:27.490Z,100.00
2023-03-29T23:34:01.327Z,100.00
2023-03-29T23:36:31.979Z,100.00
2023-03-29T23:39:04.706Z,100.00
2023-03-29T23:41:31.868Z,100.00
2023-03-29T23:44:08.168Z,100.00
2023-03-29T23:46:44.944Z,100.00
2023-03-29T23:49:12.525Z,100.00
2023-03-29T23:51:42.949Z,100.00
2023-03-29T23:54:10.101Z,100.00
2023-03-29T23:56:40.918Z,100.00
2023-03-29T23:59:14.221Z,100.00
